createdAt,value
2018-12-05T00:00:02.682Z,981.69
2018-12-05T00:01:12.724Z,981.68
2018-12-05T00:02:22.649Z,981.71
2018-12-05T00:03:32.578Z,981.7
2018-12-05T00:04:42.502Z,981.75
2018-12-05T00:05:52.508Z,981.8
2018-12-05T00:07:02.484Z,981.83
2018-12-05T00:08:12.413Z,981.83
2018-12-05T00:09:22.340Z,981.83
2018-12-05T00:10:32.275Z,981.8
2018-12-05T00:11:42.210Z,981.81
2018-12-05T00:12:52.199Z,981.88
2018-12-05T00:14:02.132Z,981.85
2018-12-05T00:15:12.068Z,981.88
2018-12-05T00:16:22.071Z,981.92
2018-12-05T00:17:33.594Z,981.92
2018-12-05T00:18:43.715Z,981.9
2018-12-05T00:19:53.653Z,981.96
2018-12-05T00:21:03.592Z,982.01
2018-12-05T00:22:13.532Z,981.94
2018-12-05T00:23:23.536Z,981.95
2018-12-05T00:24:33.515Z,981.99
2018-12-05T00:25:43.446Z,982.04
2018-12-05T00:26:53.385Z,982.02
2018-12-05T00:28:03.319Z,982.05
2018-12-05T00:29:13.251Z,982.03
2018-12-05T00:30:23.334Z,982
2018-12-05T00:31:33.009Z,981.99
2018-12-05T00:32:42.934Z,982.02
2018-12-05T00:33:52.860Z,982.03
2018-12-05T00:35:02.784Z,982.02
2018-12-05T00:36:12.867Z,981.97
2018-12-05T00:37:22.798Z,982.14
2018-12-05T00:38:32.723Z,982.09
2018-12-05T00:39:42.652Z,981.99
2018-12-05T00:40:53.381Z,982.04
2018-12-05T00:42:03.461Z,982
2018-12-05T00:43:13.394Z,981.97
2018-12-05T00:44:23.322Z,981.99
2018-12-05T00:45:33.256Z,981.98
2018-12-05T00:46:43.185Z,981.99
2018-12-05T00:47:53.288Z,982.01
2018-12-05T00:49:03.213Z,982.06
2018-12-05T00:50:13.144Z,982.05
2018-12-05T00:51:23.071Z,982.14
2018-12-05T00:52:33.069Z,982.17
2018-12-05T00:53:43.005Z,982.16
2018-12-05T00:54:52.995Z,982.18
2018-12-05T00:56:02.943Z,982.2
2018-12-05T00:57:12.873Z,982.25
2018-12-05T00:58:22.883Z,982.26
2018-12-05T00:59:32.964Z,982.27
2018-12-05T01:00:42.891Z,982.31
2018-12-05T01:01:52.823Z,982.26
2018-12-05T01:03:02.752Z,982.3
2018-12-05T01:04:12.683Z,982.24
2018-12-05T01:05:22.708Z,982.32
2018-12-05T01:06:32.638Z,982.32
2018-12-05T01:07:42.567Z,982.28
2018-12-05T01:08:52.494Z,982.34
2018-12-05T01:10:02.425Z,982.32
2018-12-05T01:11:12.149Z,982.36
2018-12-05T01:12:22.080Z,982.35
2018-12-05T01:13:32.036Z,982.36
2018-12-05T01:14:41.965Z,982.39
2018-12-05T01:15:51.889Z,982.3
2018-12-05T01:17:01.918Z,982.47
2018-12-05T01:18:11.845Z,982.43
2018-12-05T01:19:21.776Z,982.47
2018-12-05T01:20:31.751Z,982.5
2018-12-05T01:21:41.772Z,982.48
2018-12-05T01:22:51.921Z,982.48
2018-12-05T01:24:01.853Z,982.52
2018-12-05T01:25:11.779Z,982.55
2018-12-05T01:26:21.707Z,982.68
2018-12-05T01:27:31.633Z,982.67
2018-12-05T01:28:41.617Z,982.71
2018-12-05T01:29:51.543Z,982.7
2018-12-05T01:31:01.476Z,982.68
2018-12-05T01:32:11.400Z,982.83
2018-12-05T01:33:21.419Z,982.8
2018-12-05T01:34:31.511Z,982.73
2018-12-05T01:35:41.440Z,982.77
2018-12-05T01:36:51.368Z,982.85
2018-12-05T01:38:01.293Z,982.88
2018-12-05T01:39:11.229Z,982.81
2018-12-05T01:40:21.404Z,982.8
2018-12-05T01:41:31.081Z,982.84
2018-12-05T01:42:41.008Z,982.87
2018-12-05T01:43:50.938Z,982.92
2018-12-05T01:45:00.867Z,982.94
2018-12-05T01:46:10.903Z,982.92
2018-12-05T01:47:20.831Z,982.91
2018-12-05T01:48:30.764Z,982.96
2018-12-05T01:49:40.692Z,982.94
2018-12-05T01:50:50.618Z,982.94
2018-12-05T01:52:00.695Z,982.88
2018-12-05T01:53:10.627Z,982.92
2018-12-05T01:54:20.552Z,982.91
2018-12-05T01:55:30.480Z,982.91
2018-12-05T01:56:40.411Z,982.94
2018-12-05T01:57:50.489Z,982.92
2018-12-05T01:59:00.422Z,982.98
2018-12-05T02:00:10.353Z,982.99
2018-12-05T02:01:20.278Z,983
2018-12-05T02:02:30.211Z,982.94
2018-12-05T02:03:40.274Z,983
2018-12-05T02:04:50.199Z,983.04
2018-12-05T02:06:00.143Z,982.97
2018-12-05T02:07:10.077Z,983.02
2018-12-05T02:08:20.070Z,983
2018-12-05T02:09:30.061Z,983.01
2018-12-05T02:10:39.988Z,983.03
2018-12-05T02:11:49.915Z,982.99
2018-12-05T02:12:59.842Z,983.1
2018-12-05T02:14:09.787Z,983.01
2018-12-05T02:15:19.873Z,983.04
2018-12-05T02:16:29.803Z,983.03
2018-12-05T02:17:39.737Z,983.04
2018-12-05T02:18:49.666Z,983.05
2018-12-05T02:19:59.592Z,983.09
2018-12-05T02:21:09.582Z,983.03
2018-12-05T02:22:19.508Z,983.04
2018-12-05T02:23:29.436Z,982.93
2018-12-05T02:24:39.366Z,982.99
2018-12-05T02:25:49.295Z,983.01
2018-12-05T02:26:59.370Z,982.96
2018-12-05T02:28:09.294Z,982.96
2018-12-05T02:29:19.220Z,982.97
2018-12-05T02:30:29.142Z,983.03
2018-12-05T02:31:39.092Z,983.05
2018-12-05T02:32:49.070Z,983.02
2018-12-05T02:33:59.006Z,983.04
2018-12-05T02:35:08.937Z,983.1
2018-12-05T02:36:18.866Z,983.02
2018-12-05T02:37:28.799Z,983.15
2018-12-05T02:38:38.786Z,983.11
2018-12-05T02:39:48.717Z,983.13
2018-12-05T02:40:58.647Z,983.12
2018-12-05T02:42:08.589Z,983.04
2018-12-05T02:43:18.521Z,983.05
2018-12-05T02:44:28.559Z,983.08
2018-12-05T02:45:38.492Z,983.11
2018-12-05T02:46:48.432Z,983.06
2018-12-05T02:47:58.362Z,983.11
2018-12-05T02:49:08.329Z,983.07
2018-12-05T02:50:18.309Z,983.16
2018-12-05T02:51:28.240Z,983.2
2018-12-05T02:52:38.177Z,983.17
2018-12-05T02:53:48.125Z,983.19
2018-12-05T02:54:58.060Z,983.21
2018-12-05T02:56:08.149Z,983.16
2018-12-05T02:57:18.073Z,983.22
2018-12-05T02:58:28.014Z,983.27
2018-12-05T02:59:37.947Z,983.26
2018-12-05T03:00:47.878Z,983.34
2018-12-05T03:01:57.862Z,983.3
2018-12-05T03:03:07.803Z,983.35
2018-12-05T03:04:17.745Z,983.37
2018-12-05T03:05:27.445Z,983.36
2018-12-05T03:06:37.444Z,983.36
2018-12-05T03:07:47.539Z,983.38
2018-12-05T03:08:57.473Z,983.36
2018-12-05T03:10:07.437Z,983.42
2018-12-05T03:11:17.386Z,983.36
2018-12-05T03:12:27.325Z,983.39
2018-12-05T03:13:37.370Z,983.42
2018-12-05T03:14:47.379Z,983.42
2018-12-05T03:15:57.315Z,983.4
2018-12-05T03:17:07.257Z,983.41
2018-12-05T03:18:17.190Z,983.49
2018-12-05T03:19:27.178Z,983.48
2018-12-05T03:20:37.111Z,983.53
2018-12-05T03:21:47.046Z,983.57
2018-12-05T03:22:56.975Z,983.56
2018-12-05T03:24:06.925Z,983.55
2018-12-05T03:25:16.952Z,983.59
2018-12-05T03:26:26.894Z,983.6
2018-12-05T03:27:36.835Z,983.57
2018-12-05T03:28:46.763Z,983.62
2018-12-05T03:29:56.690Z,983.68
2018-12-05T03:31:06.805Z,983.65
2018-12-05T03:32:16.766Z,983.62
2018-12-05T03:33:26.782Z,983.68
2018-12-05T03:34:36.743Z,983.67
2018-12-05T03:35:46.674Z,983.7
2018-12-05T03:36:56.756Z,983.78
2018-12-05T03:38:06.709Z,983.81
2018-12-05T03:39:16.659Z,983.77
2018-12-05T03:40:26.602Z,983.79
2018-12-05T03:41:36.536Z,983.81
2018-12-05T03:42:46.575Z,983.87
2018-12-05T03:43:56.254Z,983.87
2018-12-05T03:45:06.183Z,983.91
2018-12-05T03:46:16.117Z,983.9
2018-12-05T03:47:26.064Z,983.88
2018-12-05T03:48:36.064Z,983.84
2018-12-05T03:49:46.010Z,983.87
2018-12-05T03:50:55.937Z,983.92
2018-12-05T03:52:05.891Z,983.89
2018-12-05T03:53:15.839Z,983.88
2018-12-05T03:54:25.827Z,983.9
2018-12-05T03:55:38.534Z,983.92
2018-12-05T03:56:48.465Z,983.9
2018-12-05T03:57:58.403Z,983.91
2018-12-05T03:59:08.339Z,983.86
2018-12-05T04:00:18.418Z,983.83
2018-12-05T04:01:28.162Z,983.85
2018-12-05T04:02:38.106Z,983.83
2018-12-05T04:03:48.029Z,983.85
2018-12-05T04:04:57.958Z,983.86
2018-12-05T04:06:07.940Z,983.89
2018-12-05T04:07:17.868Z,983.91
2018-12-05T04:08:27.794Z,983.92
2018-12-05T04:09:37.753Z,983.9
2018-12-05T04:10:48.046Z,983.92
2018-12-05T04:11:57.809Z,983.94
2018-12-05T04:13:07.741Z,983.99
2018-12-05T04:14:17.673Z,983.99
2018-12-05T04:15:27.710Z,983.94
2018-12-05T04:16:37.674Z,983.91
2018-12-05T04:17:47.683Z,983.92
2018-12-05T04:18:57.523Z,983.87
2018-12-05T04:20:07.452Z,983.95
2018-12-05T04:21:17.384Z,983.94
2018-12-05T04:22:27.349Z,983.95
2018-12-05T04:23:37.352Z,984
2018-12-05T04:24:47.326Z,983.98
2018-12-05T04:25:57.263Z,984.01
2018-12-05T04:27:07.197Z,984
2018-12-05T04:28:17.135Z,984
2018-12-05T04:29:27.116Z,983.99
2018-12-05T04:30:37.047Z,984.02
2018-12-05T04:31:47.018Z,983.97
2018-12-05T04:32:57.028Z,984.01
2018-12-05T04:34:07.008Z,983.99
2018-12-05T04:35:17.103Z,984.02
2018-12-05T04:36:27.041Z,984.02
2018-12-05T04:37:36.969Z,984.05
2018-12-05T04:38:46.906Z,984.06
2018-12-05T04:39:56.857Z,984.08
2018-12-05T04:41:07.338Z,984.05
2018-12-05T04:42:17.267Z,984.1
2018-12-05T04:43:27.199Z,984.11
2018-12-05T04:44:37.130Z,984.17
2018-12-05T04:45:47.072Z,984.16
2018-12-05T04:46:57.060Z,984.13
2018-12-05T04:48:06.994Z,984.19
2018-12-05T04:49:16.937Z,984.15
2018-12-05T04:50:26.870Z,984.17
2018-12-05T04:51:37.354Z,984.2
2018-12-05T04:52:47.353Z,984.19
2018-12-05T04:53:57.282Z,984.18
2018-12-05T04:55:07.295Z,984.17
2018-12-05T04:56:17.342Z,984.16
2018-12-05T04:57:27.293Z,984.19
2018-12-05T04:58:37.128Z,984.23
2018-12-05T04:59:47.070Z,984.16
2018-12-05T05:00:57.003Z,984.21
2018-12-05T05:02:06.935Z,984.2
2018-12-05T05:03:16.871Z,984.23
2018-12-05T05:04:26.815Z,984.22
2018-12-05T05:05:36.753Z,984.21
2018-12-05T05:06:46.689Z,984.19
2018-12-05T05:07:56.622Z,984.21
2018-12-05T05:09:06.560Z,984.19
2018-12-05T05:10:16.644Z,984.21
2018-12-05T05:11:26.582Z,984.25
2018-12-05T05:12:36.529Z,984.24
2018-12-05T05:13:46.469Z,984.3
2018-12-05T05:14:56.168Z,984.23
2018-12-05T05:16:06.250Z,984.26
2018-12-05T05:17:16.178Z,984.31
2018-12-05T05:18:26.132Z,984.24
2018-12-05T05:19:36.062Z,984.25
2018-12-05T05:20:45.990Z,984.29
2018-12-05T05:21:55.983Z,984.31
2018-12-05T05:23:05.997Z,984.28
2018-12-05T05:24:15.944Z,984.29
2018-12-05T05:25:25.897Z,984.32
2018-12-05T05:26:35.825Z,984.31
2018-12-05T05:27:46.176Z,984.36
2018-12-05T05:28:56.136Z,984.29
2018-12-05T05:30:06.087Z,984.38
2018-12-05T05:31:16.035Z,984.42
2018-12-05T05:32:26.478Z,984.47
2018-12-05T05:33:36.572Z,984.5
2018-12-05T05:34:46.502Z,984.46
2018-12-05T05:35:56.429Z,984.48
2018-12-05T05:37:06.357Z,984.51
2018-12-05T05:38:16.296Z,984.46
2018-12-05T05:39:26.341Z,984.52
2018-12-05T05:40:36.276Z,984.49
2018-12-05T05:41:46.203Z,984.58
2018-12-05T05:42:56.129Z,984.51
2018-12-05T05:44:06.061Z,984.55
2018-12-05T05:45:16.040Z,984.58
2018-12-05T05:46:25.984Z,984.64
2018-12-05T05:47:35.911Z,984.66
2018-12-05T05:48:45.847Z,984.66
2018-12-05T05:49:55.771Z,984.66
2018-12-05T05:51:05.796Z,984.58
2018-12-05T05:52:15.727Z,984.61
2018-12-05T05:53:25.660Z,984.62
2018-12-05T05:54:35.591Z,984.64
2018-12-05T05:55:45.522Z,984.63
2018-12-05T05:56:55.622Z,984.6
2018-12-05T05:58:05.552Z,984.62
2018-12-05T05:59:15.486Z,984.62
2018-12-05T06:00:25.414Z,984.64
2018-12-05T06:01:35.345Z,984.6
2018-12-05T06:02:45.323Z,984.56
2018-12-05T06:03:55.260Z,984.55
2018-12-05T06:05:05.187Z,984.55
2018-12-05T06:06:15.115Z,984.55
2018-12-05T06:07:25.051Z,984.53
2018-12-05T06:08:35.025Z,984.49
2018-12-05T06:09:44.947Z,984.45
2018-12-05T06:10:54.871Z,984.44
2018-12-05T06:12:04.542Z,984.44
2018-12-05T06:13:14.468Z,984.45
2018-12-05T06:14:24.496Z,984.44
2018-12-05T06:15:34.427Z,984.48
2018-12-05T06:16:44.359Z,984.52
2018-12-05T06:17:54.294Z,984.49
2018-12-05T06:19:05.312Z,984.49
2018-12-05T06:20:15.429Z,984.51
2018-12-05T06:21:25.364Z,984.53
2018-12-05T06:22:35.292Z,984.53
2018-12-05T06:23:45.223Z,984.51
2018-12-05T06:24:55.151Z,984.52
2018-12-05T06:26:05.137Z,984.54
2018-12-05T06:27:15.065Z,984.61
2018-12-05T06:28:24.742Z,984.62
2018-12-05T06:29:34.675Z,984.66
2018-12-05T06:30:44.605Z,984.71
2018-12-05T06:31:54.729Z,984.68
2018-12-05T06:33:04.678Z,984.75
2018-12-05T06:34:14.698Z,984.73
2018-12-05T06:35:24.632Z,984.7
2018-12-05T06:36:34.560Z,984.67
2018-12-05T06:37:44.648Z,984.75
2018-12-05T06:38:54.574Z,984.76
2018-12-05T06:40:06.988Z,984.78
2018-12-05T06:41:16.924Z,984.76
2018-12-05T06:42:26.849Z,984.71
2018-12-05T06:43:36.878Z,984.74
2018-12-05T06:44:46.802Z,984.73
2018-12-05T06:45:56.727Z,984.66
2018-12-05T06:47:06.655Z,984.72
2018-12-05T06:48:16.341Z,984.61
2018-12-05T06:49:26.425Z,984.65
2018-12-05T06:50:36.359Z,984.66
2018-12-05T06:51:46.297Z,984.64
2018-12-05T06:52:56.242Z,984.68
2018-12-05T06:54:06.175Z,984.69
2018-12-05T06:55:16.160Z,984.71
2018-12-05T06:56:26.092Z,984.73
2018-12-05T06:57:36.020Z,984.72
2018-12-05T06:58:45.947Z,984.69
2018-12-05T06:59:55.961Z,984.66
2018-12-05T07:01:06.039Z,984.66
2018-12-05T07:02:15.972Z,984.69
2018-12-05T07:03:25.907Z,984.72
2018-12-05T07:04:35.842Z,984.71
2018-12-05T07:05:45.765Z,984.72
2018-12-05T07:06:55.746Z,984.73
2018-12-05T07:08:05.670Z,984.8
2018-12-05T07:09:15.599Z,984.84
2018-12-05T07:10:25.525Z,984.84
2018-12-05T07:11:35.209Z,984.88
2018-12-05T07:12:45.265Z,984.91
2018-12-05T07:13:55.193Z,984.92
2018-12-05T07:15:05.120Z,984.95
2018-12-05T07:16:15.085Z,984.95
2018-12-05T07:17:25.009Z,984.92
2018-12-05T07:18:35.089Z,985
2018-12-05T07:19:45.020Z,984.97
2018-12-05T07:20:54.953Z,985.01
2018-12-05T07:22:04.884Z,984.96
2018-12-05T07:23:14.869Z,984.97
2018-12-05T07:24:24.930Z,984.96
2018-12-05T07:25:34.861Z,984.91
2018-12-05T07:26:44.798Z,984.88
2018-12-05T07:27:54.727Z,984.91
2018-12-05T07:29:04.657Z,984.96
2018-12-05T07:30:14.731Z,984.96
2018-12-05T07:31:29.954Z,984.91
2018-12-05T07:32:39.979Z,984.94
2018-12-05T07:33:49.906Z,984.9
2018-12-05T07:34:59.842Z,984.88
2018-12-05T07:36:09.919Z,984.92
2018-12-05T07:37:19.854Z,984.99
2018-12-05T07:38:29.795Z,984.91
2018-12-05T07:39:39.724Z,984.95
2018-12-05T07:40:49.652Z,984.95
2018-12-05T07:41:59.678Z,984.99
2018-12-05T07:43:09.608Z,984.94
2018-12-05T07:44:19.544Z,984.9
2018-12-05T07:45:29.481Z,984.9
2018-12-05T07:46:39.417Z,985.01
2018-12-05T07:47:49.447Z,984.98
2018-12-05T07:48:59.376Z,984.98
2018-12-05T07:50:09.306Z,984.96
2018-12-05T07:51:21.146Z,985.03
2018-12-05T07:52:31.086Z,984.92
2018-12-05T07:53:41.170Z,985
2018-12-05T07:54:51.097Z,984.98
2018-12-05T07:56:01.031Z,984.98
2018-12-05T07:57:10.954Z,984.94
2018-12-05T07:58:20.907Z,984.93
2018-12-05T07:59:30.885Z,984.94
2018-12-05T08:00:40.830Z,985
2018-12-05T08:01:50.777Z,985
2018-12-05T08:03:01.750Z,985
2018-12-05T08:04:11.842Z,984.96
2018-12-05T08:05:21.923Z,984.97
2018-12-05T08:06:31.848Z,984.95
2018-12-05T08:07:41.773Z,984.89
2018-12-05T08:08:51.697Z,984.9
2018-12-05T08:10:01.636Z,984.92
2018-12-05T08:11:11.673Z,984.92
2018-12-05T08:12:21.610Z,984.87
2018-12-05T08:13:31.544Z,984.87
2018-12-05T08:14:41.469Z,984.87
2018-12-05T08:15:51.396Z,984.85
2018-12-05T08:17:01.174Z,984.89
2018-12-05T08:18:11.107Z,984.9
2018-12-05T08:19:21.035Z,984.93
2018-12-05T08:20:30.961Z,984.9
2018-12-05T08:21:40.892Z,984.9
2018-12-05T08:22:50.871Z,984.84
2018-12-05T08:24:00.805Z,984.86
2018-12-05T08:25:10.738Z,984.81
2018-12-05T08:26:20.760Z,984.85
2018-12-05T08:27:30.697Z,984.8
2018-12-05T08:28:40.776Z,984.74
2018-12-05T08:29:50.704Z,984.68
2018-12-05T08:31:00.632Z,984.6
2018-12-05T08:32:10.565Z,984.67
2018-12-05T08:33:20.236Z,984.72
2018-12-05T08:34:30.217Z,984.72
2018-12-05T08:35:40.149Z,984.83
2018-12-05T08:36:50.079Z,984.81
2018-12-05T08:38:00.528Z,984.89
2018-12-05T08:39:10.592Z,984.89
2018-12-05T08:40:20.575Z,984.94
2018-12-05T08:41:30.272Z,984.78
2018-12-05T08:42:40.203Z,984.74
2018-12-05T08:43:50.135Z,984.8
2018-12-05T08:45:00.059Z,984.72
2018-12-05T08:46:10.036Z,984.77
2018-12-05T08:47:19.966Z,984.77
2018-12-05T08:48:34.286Z,984.79
2018-12-05T08:49:44.212Z,984.75
2018-12-05T08:50:54.143Z,984.68
2018-12-05T08:52:04.172Z,984.67
2018-12-05T08:53:14.099Z,984.67
2018-12-05T08:54:24.030Z,984.68
2018-12-05T08:55:33.970Z,984.69
2018-12-05T08:56:43.899Z,984.7
2018-12-05T08:57:53.881Z,984.69
2018-12-05T08:59:03.812Z,984.66
2018-12-05T09:00:13.768Z,984.68
2018-12-05T09:01:23.861Z,984.69
2018-12-05T09:02:33.841Z,984.68
2018-12-05T09:03:43.874Z,984.65
2018-12-05T09:04:53.801Z,984.68
2018-12-05T09:06:03.726Z,984.69
2018-12-05T09:07:13.655Z,984.72
2018-12-05T09:08:23.591Z,984.73
2018-12-05T09:09:33.621Z,984.73
2018-12-05T09:10:43.547Z,984.77
2018-12-05T09:11:53.477Z,984.79
2018-12-05T09:13:03.414Z,984.83
2018-12-05T09:14:13.340Z,984.9
2018-12-05T09:15:29.380Z,984.93
2018-12-05T09:16:39.319Z,984.93
2018-12-05T09:17:49.252Z,985.08
2018-12-05T09:18:59.194Z,985.06
2018-12-05T09:20:09.203Z,985.02
2018-12-05T09:21:18.992Z,984.97
2018-12-05T09:22:28.936Z,985.01
2018-12-05T09:23:46.369Z,984.95
2018-12-05T09:24:56.298Z,985.01
2018-12-05T09:26:06.228Z,984.97
2018-12-05T09:27:16.165Z,984.95
2018-12-05T09:28:26.106Z,984.98
2018-12-05T09:29:36.049Z,984.99
2018-12-05T09:30:45.979Z,984.92
2018-12-05T09:31:55.906Z,984.93
2018-12-05T09:33:05.949Z,985
2018-12-05T09:34:15.880Z,984.96
2018-12-05T09:35:25.815Z,984.97
2018-12-05T09:36:35.773Z,984.91
2018-12-05T09:37:45.740Z,984.95
2018-12-05T09:38:55.467Z,984.91
2018-12-05T09:40:05.399Z,984.95
2018-12-05T09:41:15.327Z,984.93
2018-12-05T09:42:25.262Z,984.99
2018-12-05T09:43:35.197Z,985
2018-12-05T09:44:45.205Z,984.93
2018-12-05T09:45:55.130Z,984.94
2018-12-05T09:47:05.058Z,984.96
2018-12-05T09:48:21.138Z,984.87
2018-12-05T09:49:31.066Z,984.79
2018-12-05T09:50:41.048Z,984.81
2018-12-05T09:51:50.989Z,984.8
2018-12-05T09:53:00.928Z,984.81
2018-12-05T09:54:10.861Z,984.79
2018-12-05T09:55:20.798Z,984.74
2018-12-05T09:56:30.784Z,984.73
2018-12-05T09:57:40.719Z,984.77
2018-12-05T09:58:50.647Z,984.79
2018-12-05T10:00:00.664Z,984.81
2018-12-05T10:01:10.607Z,984.85
2018-12-05T10:02:20.587Z,984.75
2018-12-05T10:03:30.518Z,984.73
2018-12-05T10:04:40.446Z,984.73
2018-12-05T10:05:50.375Z,984.68
2018-12-05T10:07:00.304Z,984.63
2018-12-05T10:08:10.283Z,984.65
2018-12-05T10:09:20.248Z,984.61
2018-12-05T10:10:30.177Z,984.64
2018-12-05T10:11:40.123Z,984.66
2018-12-05T10:12:50.057Z,984.58
2018-12-05T10:14:00.087Z,984.59
2018-12-05T10:15:10.012Z,984.57
2018-12-05T10:16:19.940Z,984.52
2018-12-05T10:17:29.881Z,984.54
2018-12-05T10:18:39.807Z,984.52
2018-12-05T10:19:49.783Z,984.55
2018-12-05T10:20:59.713Z,984.51
2018-12-05T10:22:09.656Z,984.47
2018-12-05T10:23:19.585Z,984.47
2018-12-05T10:24:29.522Z,984.48
2018-12-05T10:25:39.302Z,984.47
2018-12-05T10:26:48.973Z,984.44
2018-12-05T10:27:58.899Z,984.43
2018-12-05T10:29:08.827Z,984.42
2018-12-05T10:30:18.756Z,984.39
2018-12-05T10:31:28.737Z,984.33
2018-12-05T10:32:44.554Z,984.29
2018-12-05T10:33:54.483Z,984.28
2018-12-05T10:35:04.409Z,984.23
2018-12-05T10:36:14.338Z,984.25
2018-12-05T10:37:24.318Z,984.2
2018-12-05T10:38:34.248Z,984.19
2018-12-05T10:39:44.197Z,984.2
2018-12-05T10:40:54.127Z,984.19
2018-12-05T10:42:04.053Z,984.14
2018-12-05T10:43:14.137Z,984.23
2018-12-05T10:44:24.071Z,984.18
2018-12-05T10:45:34.010Z,984.17
2018-12-05T10:46:43.939Z,984.12
2018-12-05T10:47:53.957Z,984.08
2018-12-05T10:49:04.042Z,984.14
2018-12-05T10:50:13.979Z,984.13
2018-12-05T10:51:23.912Z,984.09
2018-12-05T10:52:33.841Z,984.09
2018-12-05T10:53:43.787Z,984.05
2018-12-05T10:54:53.732Z,984
2018-12-05T10:56:03.660Z,984.01
2018-12-05T10:57:13.598Z,984
2018-12-05T10:58:23.535Z,984
2018-12-05T10:59:33.464Z,983.97
2018-12-05T11:00:43.205Z,983.99
2018-12-05T11:01:53.143Z,984.04
2018-12-05T11:03:03.080Z,984.03
2018-12-05T11:04:13.014Z,983.99
2018-12-05T11:05:22.947Z,984.08
2018-12-05T11:06:32.975Z,983.94
2018-12-05T11:07:42.909Z,983.96
2018-12-05T11:08:52.843Z,983.94
2018-12-05T11:10:02.787Z,983.93
2018-12-05T11:11:12.721Z,983.89
2018-12-05T11:12:22.805Z,983.92
2018-12-05T11:13:32.738Z,983.91
2018-12-05T11:14:42.670Z,983.86
2018-12-05T11:15:52.602Z,983.91
2018-12-05T11:17:02.377Z,984.02
2018-12-05T11:18:12.505Z,983.99
2018-12-05T11:19:22.442Z,984.09
2018-12-05T11:20:32.382Z,983.99
2018-12-05T11:21:49.540Z,984.04
2018-12-05T11:22:59.626Z,984.02
2018-12-05T11:24:09.616Z,984.08
2018-12-05T11:25:19.562Z,984.07
2018-12-05T11:26:29.510Z,984.16
2018-12-05T11:27:39.450Z,984.15
2018-12-05T11:28:49.131Z,984.1
2018-12-05T11:29:59.075Z,984.04
2018-12-05T11:31:09.012Z,984.02
2018-12-05T11:32:18.956Z,983.99
2018-12-05T11:33:28.894Z,984.01
2018-12-05T11:34:38.837Z,984.02
2018-12-05T11:35:48.882Z,984.1
2018-12-05T11:36:58.818Z,984.06
2018-12-05T11:38:08.754Z,984.11
2018-12-05T11:39:18.692Z,984.11
2018-12-05T11:40:28.629Z,984.14
2018-12-05T11:41:38.711Z,984.11
2018-12-05T11:42:48.643Z,984.09
2018-12-05T11:43:58.579Z,984.14
2018-12-05T11:45:08.536Z,984.14
2018-12-05T11:46:18.468Z,984.07
2018-12-05T11:47:28.561Z,984.21
2018-12-05T11:48:38.501Z,984.16
2018-12-05T11:49:48.191Z,984.18
2018-12-05T11:50:58.133Z,984.23
2018-12-05T11:52:08.077Z,984.2
2018-12-05T11:53:18.122Z,984.18
2018-12-05T11:54:28.136Z,984.18
2018-12-05T11:55:38.088Z,984.25
2018-12-05T11:56:48.023Z,984.17
2018-12-05T11:57:57.958Z,984.14
2018-12-05T11:59:07.992Z,984.11
2018-12-05T12:00:17.931Z,984.08
2018-12-05T12:01:27.869Z,984.05
2018-12-05T12:02:37.811Z,984.06
2018-12-05T12:03:47.748Z,984.02
2018-12-05T12:04:57.835Z,984
2018-12-05T12:06:07.775Z,983.97
2018-12-05T12:07:17.716Z,983.92
2018-12-05T12:08:27.654Z,983.9
2018-12-05T12:09:37.585Z,983.96
2018-12-05T12:10:47.544Z,983.91
2018-12-05T12:11:57.555Z,983.9
2018-12-05T12:13:07.489Z,983.9
2018-12-05T12:14:17.425Z,983.87
2018-12-05T12:15:27.362Z,983.89
2018-12-05T12:16:37.354Z,983.89
2018-12-05T12:17:47.292Z,983.83
2018-12-05T12:18:57.233Z,983.84
2018-12-05T12:20:07.168Z,983.86
2018-12-05T12:21:17.115Z,983.85
2018-12-05T12:22:27.156Z,983.79
2018-12-05T12:23:37.109Z,983.75
2018-12-05T12:24:47.051Z,983.75
2018-12-05T12:25:57.074Z,983.71
2018-12-05T12:27:07.012Z,983.68
2018-12-05T12:28:17.061Z,983.66
2018-12-05T12:29:26.995Z,983.63
2018-12-05T12:30:36.936Z,983.62
2018-12-05T12:31:46.873Z,983.58
2018-12-05T12:32:56.553Z,983.5
2018-12-05T12:34:08.208Z,983.52
2018-12-05T12:35:18.155Z,983.51
2018-12-05T12:36:28.086Z,983.51
2018-12-05T12:37:38.042Z,983.43
2018-12-05T12:38:47.978Z,983.43
2018-12-05T12:39:58.093Z,983.39
2018-12-05T12:41:08.038Z,983.43
2018-12-05T12:42:17.968Z,983.4
2018-12-05T12:43:27.906Z,983.44
2018-12-05T12:44:37.836Z,983.38
2018-12-05T12:45:47.926Z,983.39
2018-12-05T12:46:57.865Z,983.41
2018-12-05T12:48:07.805Z,983.33
2018-12-05T12:49:17.742Z,983.3
2018-12-05T12:50:27.674Z,983.33
2018-12-05T12:51:37.757Z,983.35
2018-12-05T12:52:47.686Z,983.38
2018-12-05T12:53:57.614Z,983.49
2018-12-05T12:55:07.546Z,983.42
2018-12-05T12:56:17.474Z,983.35
2018-12-05T12:57:27.885Z,983.32
2018-12-05T12:58:37.819Z,983.34
2018-12-05T12:59:47.755Z,983.39
2018-12-05T13:00:57.688Z,983.42
2018-12-05T13:02:07.675Z,983.39
2018-12-05T13:03:17.666Z,983.43
2018-12-05T13:04:27.594Z,983.39
2018-12-05T13:05:37.539Z,983.36
2018-12-05T13:06:47.485Z,983.43
2018-12-05T13:07:57.429Z,983.36
2018-12-05T13:09:07.513Z,983.35
2018-12-05T13:10:17.451Z,983.36
2018-12-05T13:11:27.379Z,983.42
2018-12-05T13:12:37.311Z,983.37
2018-12-05T13:13:47.247Z,983.38
2018-12-05T13:14:57.188Z,983.38
2018-12-05T13:16:07.126Z,983.34
2018-12-05T13:17:17.055Z,983.37
2018-12-05T13:18:26.982Z,983.4
2018-12-05T13:19:36.668Z,983.36
2018-12-05T13:20:46.513Z,983.37
2018-12-05T13:21:56.452Z,983.34
2018-12-05T13:23:06.381Z,983.37
2018-12-05T13:24:16.310Z,983.41
2018-12-05T13:25:26.240Z,983.44
2018-12-05T13:26:36.242Z,983.42
2018-12-05T13:27:46.170Z,983.43
2018-12-05T13:28:56.142Z,983.52
2018-12-05T13:30:06.071Z,983.45
2018-12-05T13:31:17.683Z,983.34
2018-12-05T13:32:27.711Z,983.37
2018-12-05T13:33:37.640Z,983.28
2018-12-05T13:34:47.613Z,983.26
2018-12-05T13:35:57.548Z,983.23
2018-12-05T13:37:07.480Z,983.27
2018-12-05T13:38:17.576Z,983.31
2018-12-05T13:39:27.503Z,983.31
2018-12-05T13:40:37.435Z,983.29
2018-12-05T13:41:47.605Z,983.27
2018-12-05T13:42:57.536Z,983.26
2018-12-05T13:44:07.210Z,983.34
2018-12-05T13:45:17.144Z,983.28
2018-12-05T13:46:30.031Z,983.26
2018-12-05T13:47:40.138Z,983.31
2018-12-05T13:48:50.065Z,983.26
2018-12-05T13:50:00.148Z,983.24
2018-12-05T13:51:10.078Z,983.21
2018-12-05T13:52:20.019Z,983.2
2018-12-05T13:53:29.969Z,983.24
2018-12-05T13:54:39.900Z,983.17
2018-12-05T13:55:49.932Z,983.2
2018-12-05T13:56:59.862Z,983.21
2018-12-05T13:58:09.797Z,983.21
2018-12-05T13:59:19.725Z,983.19
2018-12-05T14:00:29.658Z,983.15
2018-12-05T14:01:39.691Z,983.19
2018-12-05T14:02:49.624Z,983.25
2018-12-05T14:03:59.552Z,983.2
2018-12-05T14:05:09.496Z,983.21
2018-12-05T14:06:19.423Z,983.18
2018-12-05T14:07:29.347Z,983.17
2018-12-05T14:08:39.796Z,983.13
2018-12-05T14:09:49.732Z,983.08
2018-12-05T14:10:59.417Z,983.1
2018-12-05T14:12:09.372Z,983.05
2018-12-05T14:13:19.401Z,983.06
2018-12-05T14:14:29.079Z,983.03
2018-12-05T14:15:39.008Z,983.05
2018-12-05T14:16:48.937Z,983.03
2018-12-05T14:18:01.656Z,983.06
2018-12-05T14:19:12.476Z,983.02
2018-12-05T14:20:22.409Z,983.05
2018-12-05T14:21:32.375Z,983.01
2018-12-05T14:22:42.306Z,983
2018-12-05T14:23:52.238Z,982.97
2018-12-05T14:25:02.273Z,983.02
2018-12-05T14:26:12.213Z,982.97
2018-12-05T14:27:21.888Z,982.97
2018-12-05T14:28:31.921Z,982.96
2018-12-05T14:29:41.866Z,982.91
2018-12-05T14:30:51.951Z,982.92
2018-12-05T14:32:01.889Z,982.92
2018-12-05T14:33:11.826Z,982.92
2018-12-05T14:34:21.761Z,982.93
2018-12-05T14:35:31.703Z,982.94
2018-12-05T14:36:41.786Z,982.96
2018-12-05T14:37:51.713Z,982.91